Time;durP1;ratioP1;P1;durP2;ratioP2;P2;SDS_P1;SDS_P2;PMS_P1;PMS_P2;Temp;Humidity;BMP_temperature;BMP_pressure;BME280_temperature;BME280_humidity;BME280_pressure;Samples;Min_cycle;Max_cycle;Signal;HPM_P1;HPM_P2
2022/03/23 00:00:50;;;;;;;7.38;4.30;;;;;;;6.13;44.06;100934.66;5101824;28;20020;-61
2022/03/23 00:03:16;;;;;;;8.43;3.95;;;;;;;5.98;45.05;100915.56;5095753;28;20221;-60
2022/03/23 00:05:42;;;;;;;9.32;4.43;;;;;;;6.03;44.57;100928.53;5085177;28;20035;-60
2022/03/23 00:08:08;;;;;;;7.90;4.25;;;;;;;5.94;44.77;100920.59;5101974;28;20213;-60
2022/03/23 00:10:35;;;;;;;9.85;4.38;;;;;;;5.87;44.37;100915.38;5101279;28;20095;-61
2022/03/23 00:13:02;;;;;;;8.68;4.15;;;;;;;5.92;44.40;100933.44;5115375;28;20036;-61
2022/03/23 00:15:30;;;;;;;8.52;4.22;;;;;;;5.88;44.63;100936.78;5114422;28;20030;-61
2022/03/23 00:17:57;;;;;;;12.77;4.50;;;;;;;5.75;44.92;100914.28;5117565;28;20113;-61
2022/03/23 00:20:24;;;;;;;10.15;4.50;;;;;;;5.79;45.55;100923.78;5101939;28;20228;-60
2022/03/23 00:22:51;;;;;;;7.63;4.10;;;;;;;5.67;44.89;100917.59;5102141;28;20027;-60
2022/03/23 00:25:17;;;;;;;11.50;4.43;;;;;;;5.76;46.75;100937.44;5102477;28;20362;-61
2022/03/23 00:27:42;;;;;;;13.10;4.50;;;;;;;5.74;45.92;100930.53;5101362;28;20024;-61
2022/03/23 00:30:10;;;;;;;8.40;3.90;;;;;;;5.74;44.77;100930.53;5105020;28;20035;-60
2022/03/23 00:32:35;;;;;;;8.77;4.20;;;;;;;5.72;46.18;100927.09;5105389;28;20016;-60
2022/03/23 00:35:02;;;;;;;7.93;4.68;;;;;;;5.64;45.10;100925.25;5104694;28;20389;-60
2022/03/23 00:37:29;;;;;;;11.70;4.53;;;;;;;5.65;45.28;100928.66;5123897;28;20057;-59
2022/03/23 00:39:55;;;;;;;7.40;4.50;;;;;;;5.59;46.22;100924.28;5111318;28;20228;-60
2022/03/23 00:42:21;;;;;;;7.60;4.22;;;;;;;5.57;45.76;100923.34;5105689;28;20024;-59
2022/03/23 00:44:46;;;;;;;8.88;4.35;;;;;;;5.57;45.79;100914.78;5105434;28;20024;-60
2022/03/23 00:47:12;;;;;;;8.35;4.55;;;;;;;5.54;46.46;100915.59;5105666;28;20032;-59
2022/03/23 00:49:38;;;;;;;7.80;4.03;;;;;;;5.49;46.24;100914.66;5105174;28;20032;-60
2022/03/23 00:52:06;;;;;;;8.05;4.22;;;;;;;5.46;46.56;100899.19;5101216;28;20024;-60
2022/03/23 00:54:34;;;;;;;8.02;4.10;;;;;;;5.53;45.44;100919.03;5104178;28;20027;-59
2022/03/23 00:57:01;;;;;;;11.77;4.10;;;;;;;5.43;45.66;100917.97;5105177;28;20047;-59
2022/03/23 00:59:27;;;;;;;9.55;4.20;;;;;;;5.33;47.77;100900.63;5104072;28;20047;-60
2022/03/23 01:01:53;;;;;;;8.23;4.68;;;;;;;5.37;47.37;100905.00;5085365;28;20036;-59
2022/03/23 01:04:19;;;;;;;10.40;4.63;;;;;;;5.35;47.66;100910.09;5117503;28;20031;-60
2022/03/23 01:06:46;;;;;;;6.85;4.60;;;;;;;5.27;47.11;100910.78;5098445;28;20047;-60
2022/03/23 01:09:12;;;;;;;9.13;4.97;;;;;;;5.25;47.34;100918.47;5109724;28;20300;-60
2022/03/23 01:11:39;;;;;;;11.18;4.95;;;;;;;5.20;48.59;100909.78;5125571;28;20047;-60
2022/03/23 01:14:05;;;;;;;13.57;5.68;;;;;;;5.21;48.46;100910.69;5096955;28;20032;-60
2022/03/23 01:16:31;;;;;;;12.98;5.22;;;;;;;5.15;48.91;100907.13;5120642;28;20020;-61
2022/03/23 01:18:57;;;;;;;9.55;5.55;;;;;;;5.12;48.69;100901.09;5125243;28;20039;-60
2022/03/23 01:21:23;;;;;;;14.23;6.03;;;;;;;5.07;49.31;100906.09;5116615;28;20031;-60
2022/03/23 01:23:48;;;;;;;11.10;5.03;;;;;;;5.05;48.82;100900.09;5095619;28;20027;-61
2022/03/23 01:26:14;;;;;;;9.25;4.63;;;;;;;4.98;47.92;100890.53;5099347;28;20570;-61
2022/03/23 01:28:40;;;;;;;9.68;5.20;;;;;;;4.96;48.65;100898.19;5104551;28;20285;-60
2022/03/23 01:31:05;;;;;;;11.90;4.97;;;;;;;4.94;48.38;100896.41;5104622;28;20059;-60
2022/03/23 01:33:32;;;;;;;9.57;5.40;;;;;;;4.91;50.10;100893.78;5113947;28;20083;-61
2022/03/23 01:35:57;;;;;;;11.57;5.18;;;;;;;4.89;48.49;100895.44;5120196;28;20182;-61
2022/03/23 01:38:23;;;;;;;11.80;5.30;;;;;;;4.91;49.34;100892.09;5103868;28;20024;-60
2022/03/23 01:40:49;;;;;;;13.43;5.82;;;;;;;4.82;49.82;100892.75;5122206;28;20032;-60
2022/03/23 01:43:14;;;;;;;12.00;6.18;;;;;;;4.79;51.14;100892.69;5103342;28;20031;-59
2022/03/23 01:45:40;;;;;;;9.95;5.25;;;;;;;4.79;49.25;100896.97;5104162;28;20305;-61
2022/03/23 01:48:05;;;;;;;9.35;4.95;;;;;;;4.77;49.95;100888.34;5103591;28;20027;-60
2022/03/23 01:50:31;;;;;;;10.30;5.03;;;;;;;4.66;50.09;100876.16;5098957;28;20285;-60
2022/03/23 01:52:56;;;;;;;8.93;5.10;;;;;;;4.63;51.00;100882.91;5104211;28;20040;-61
2022/03/23 01:55:22;;;;;;;10.85;5.38;;;;;;;4.60;49.81;100880.28;5103100;28;20047;-60
2022/03/23 01:57:51;;;;;;;8.35;5.38;;;;;;;4.58;51.69;100895.66;5094308;28;20031;-62
2022/03/23 02:00:17;;;;;;;10.43;5.43;;;;;;;4.53;51.90;100888.69;5089687;28;20333;-62
2022/03/23 02:02:44;;;;;;;10.38;5.00;;;;;;;4.47;50.78;100881.72;5116321;28;20028;-61
2022/03/23 02:05:11;;;;;;;11.85;5.13;;;;;;;4.47;49.91;100884.28;5124475;28;20030;-62
2022/03/23 02:07:38;;;;;;;8.60;5.18;;;;;;;4.44;50.25;100884.22;5105633;28;20027;-61
2022/03/23 02:10:05;;;;;;;10.15;5.55;;;;;;;4.34;51.32;100870.31;5087967;28;20150;-60
2022/03/23 02:12:31;;;;;;;13.10;5.38;;;;;;;4.41;51.66;100884.13;5100855;28;20048;-61
2022/03/23 02:14:58;;;;;;;9.13;5.70;;;;;;;4.38;50.56;100866.97;5103621;28;20301;-59
2022/03/23 02:17:25;;;;;;;14.00;5.35;;;;;;;4.45;49.72;100883.38;5103563;28;20034;-62
2022/03/23 02:19:51;;;;;;;13.38;5.63;;;;;;;4.42;50.48;100883.31;5105663;28;20024;-61
2022/03/23 02:22:17;;;;;;;11.50;5.00;;;;;;;4.39;51.17;100876.41;5103307;28;20031;-61
2022/03/23 02:24:46;;;;;;;12.65;5.53;;;;;;;4.07;51.56;100816.69;5105511;28;20066;-60
2022/03/23 02:27:12;;;;;;;10.52;5.90;;;;;;;4.30;51.33;100876.19;5102698;28;20087;-59
2022/03/23 02:29:38;;;;;;;12.32;5.60;;;;;;;4.26;50.66;100856.44;5103266;28;20024;-60
2022/03/23 02:32:05;;;;;;;13.20;5.97;;;;;;;4.30;50.77;100876.19;5103595;28;20236;-59
2022/03/23 02:34:31;;;;;;;14.48;5.72;;;;;;;4.30;49.26;100866.81;5103217;28;20028;-61
2022/03/23 02:36:59;;;;;;;13.13;5.60;;;;;;;4.30;50.77;100871.94;5115691;28;20080;-60
2022/03/23 02:39:25;;;;;;;10.88;5.28;;;;;;;4.30;50.68;100873.63;5117762;28;20023;-60
2022/03/23 02:41:53;;;;;;;10.20;5.47;;;;;;;4.11;50.53;100860.38;5123761;28;20149;-61
2022/03/23 02:44:20;;;;;;;9.82;5.22;;;;;;;4.25;49.94;100873.53;5123790;28;20035;-60
2022/03/23 02:46:46;;;;;;;13.90;5.82;;;;;;;4.24;50.91;100871.78;5103812;28;20042;-60
2022/03/23 02:49:15;;;;;;;9.20;5.60;;;;;;;3.93;50.57;100814.69;5117509;28;20340;-60
2022/03/23 02:51:41;;;;;;;12.85;6.20;;;;;;;4.22;51.25;100865.75;5118633;28;20024;-59
2022/03/23 03:03:02;;;;;;;12.63;5.75;;;;;;;4.10;49.77;100856.06;5107439;28;20035;-60
2022/03/23 03:05:28;;;;;;;11.10;4.75;;;;;;;4.10;51.19;100845.81;5123284;28;20035;-59
2022/03/23 03:10:37;;;;;;;16.17;5.47;;;;;;;4.11;50.98;100864.63;5120806;28;20042;-60
2022/03/23 03:13:03;;;;;;;11.07;6.00;;;;;;;4.17;50.92;100864.78;5114712;28;20048;-59
2022/03/23 03:15:28;;;;;;;9.35;5.53;;;;;;;4.10;50.49;100857.75;5118244;28;20027;-60
2022/03/23 03:17:58;;;;;;;12.30;6.13;;;;;;;4.02;50.33;100849.00;5123078;28;20040;-60
2022/03/23 03:20:24;;;;;;;13.57;5.65;;;;;;;4.06;49.92;100848.28;5122450;28;20095;-59
2022/03/23 03:22:52;;;;;;;14.73;5.40;;;;;;;4.13;50.64;100862.97;5101922;28;20359;-59
2022/03/23 03:25:20;;;;;;;17.65;6.53;;;;;;;4.13;50.62;100857.84;5117509;28;20027;-59
2022/03/23 03:27:47;;;;;;;15.68;7.13;;;;;;;4.08;50.24;100864.56;5113400;28;20030;-59
2022/03/23 03:30:18;;;;;;;14.77;6.25;;;;;;;4.09;50.32;100871.41;5091208;28;20356;-60
2022/03/23 03:32:44;;;;;;;16.42;6.47;;;;;;;4.10;51.26;100858.63;5102016;28;20024;-60
2022/03/23 03:35:11;;;;;;;10.88;5.47;;;;;;;4.11;51.02;100856.94;5101143;28;20039;-60
2022/03/23 03:37:39;;;;;;;16.02;6.55;;;;;;;4.11;51.00;100859.50;5106857;28;20100;-60
2022/03/23 03:40:06;;;;;;;12.75;6.53;;;;;;;4.07;51.41;100853.44;5093656;28;20048;-60
2022/03/23 03:42:31;;;;;;;11.15;6.88;;;;;;;4.11;51.81;100851.81;5100914;28;20047;-61
2022/03/23 03:44:57;;;;;;;14.93;6.55;;;;;;;4.11;51.22;100850.09;5102327;28;20312;-61
2022/03/23 03:47:24;;;;;;;12.68;6.18;;;;;;;4.08;51.72;100851.75;5102155;28;20044;-59
2022/03/23 03:49:50;;;;;;;14.77;5.88;;;;;;;4.07;51.90;100853.44;5102012;28;20028;-60
2022/03/23 03:52:18;;;;;;;14.73;6.88;;;;;;;4.12;52.19;100853.56;5102146;28;20087;-59
2022/03/23 03:54:44;;;;;;;14.70;6.82;;;;;;;4.15;51.52;100848.50;5102078;28;20037;-59
2022/03/23 03:57:10;;;;;;;12.57;6.45;;;;;;;4.15;52.11;100844.22;5101258;28;20028;-59
2022/03/23 03:59:36;;;;;;;11.57;6.45;;;;;;;4.10;52.41;100833.00;5094878;28;20059;-59
2022/03/23 04:02:02;;;;;;;17.08;6.60;;;;;;;4.07;52.14;100832.06;5102165;28;20028;-60
2022/03/23 04:04:28;;;;;;;12.07;5.70;;;;;;;4.16;51.66;100842.53;5121602;28;20038;-60
2022/03/23 04:06:54;;;;;;;14.35;6.30;;;;;;;4.19;51.37;100852.00;5114987;28;20083;-59
2022/03/23 04:09:19;;;;;;;15.15;6.45;;;;;;;4.21;51.19;100851.19;5104935;28;20024;-58
2022/03/23 04:11:45;;;;;;;15.18;6.13;;;;;;;4.13;51.32;100835.66;5105730;28;20086;-59
2022/03/23 04:14:10;;;;;;;15.77;5.78;;;;;;;4.20;50.72;100846.91;5126526;28;20024;-62
2022/03/23 04:16:36;;;;;;;15.18;5.72;;;;;;;4.23;50.61;100841.88;5108945;28;20317;-59
2022/03/23 04:19:03;;;;;;;13.05;6.80;;;;;;;4.24;50.91;100830.75;5105863;28;20047;-60
2022/03/23 04:21:29;;;;;;;13.88;6.30;;;;;;;4.36;50.72;100837.00;5105635;28;20088;-59
2022/03/23 04:23:54;;;;;;;14.85;7.30;;;;;;;4.42;50.81;100840.56;5105507;28;20035;-59
2022/03/23 04:26:20;;;;;;;26.08;7.18;;;;;;;4.39;49.64;100829.38;5104433;28;20069;-59
2022/03/23 04:28:45;;;;;;;13.73;6.18;;;;;;;4.51;50.76;100828.78;5105177;28;20028;-59
2022/03/23 04:31:11;;;;;;;11.30;6.70;;;;;;;4.49;49.57;100829.63;5105468;28;20024;-60
2022/03/23 04:33:36;;;;;;;13.23;6.43;;;;;;;4.54;51.08;100823.72;5105441;28;20020;-60
2022/03/23 04:36:03;;;;;;;15.15;6.20;;;;;;;4.55;50.92;100817.78;5104095;28;20197;-60
2022/03/23 04:38:28;;;;;;;16.05;6.78;;;;;;;4.57;50.03;100823.78;5105638;28;20024;-60
2022/03/23 04:40:54;;;;;;;14.95;6.40;;;;;;;4.64;50.73;100828.22;5088821;28;20059;-58
2022/03/23 04:43:20;;;;;;;13.90;6.80;;;;;;;4.64;50.33;100826.50;5098641;28;20350;-58
2022/03/23 04:45:45;;;;;;;12.50;6.15;;;;;;;4.75;49.23;100829.31;5113935;28;20020;-59
2022/03/23 04:48:11;;;;;;;17.00;6.47;;;;;;;4.78;49.32;100816.53;5109533;28;20027;-59
2022/03/23 04:50:37;;;;;;;17.02;6.88;;;;;;;4.82;49.15;100823.47;5107395;28;20307;-59
2022/03/23 04:53:03;;;;;;;17.58;7.65;;;;;;;4.87;49.97;100818.41;5105203;28;20100;-59
2022/03/23 04:55:29;;;;;;;15.70;7.05;;;;;;;4.88;49.90;100812.47;5105283;28;20024;-59
2022/03/23 04:57:55;;;;;;;18.05;7.30;;;;;;;4.96;49.12;100816.06;5104776;28;20079;-60
2022/03/23 05:00:21;;;;;;;14.52;7.18;;;;;;;5.03;48.84;100822.19;5104236;28;20031;-59
2022/03/23 05:02:49;;;;;;;17.52;6.40;;;;;;;5.04;49.26;100815.34;5121028;28;20036;-59
2022/03/23 05:05:15;;;;;;;15.68;6.47;;;;;;;5.12;49.97;100808.66;5103717;28;20028;-59
2022/03/23 05:07:42;;;;;;;22.88;7.50;;;;;;;5.14;49.45;100814.66;5114760;28;20097;-59
2022/03/23 05:10:08;;;;;;;16.23;6.75;;;;;;;4.90;49.41;100767.13;5104740;28;20028;-59
2022/03/23 05:12:38;;;;;;;13.68;6.32;;;;;;;5.01;50.29;100765.66;5104599;28;20534;-59
2022/03/23 05:15:06;;;;;;;10.87;6.00;;;;;;;5.30;49.30;100811.56;5103816;28;20055;-59
2022/03/23 05:17:32;;;;;;;14.68;7.28;;;;;;;5.32;49.35;100806.44;5104671;28;20032;-59
2022/03/23 05:19:58;;;;;;;15.10;6.55;;;;;;;5.39;49.86;100804.84;5104502;28;20020;-61
2022/03/23 05:22:24;;;;;;;15.43;6.93;;;;;;;5.43;48.39;100793.78;5104362;28;20273;-59
2022/03/23 05:24:50;;;;;;;15.65;6.10;;;;;;;5.45;49.81;100798.13;5104657;28;20099;-60
2022/03/23 05:27:15;;;;;;;15.05;6.47;;;;;;;5.50;50.69;100786.22;5104021;28;20292;-59
2022/03/23 05:29:43;;;;;;;10.05;5.75;;;;;;;5.58;48.98;100793.19;5103475;28;20212;-59
2022/03/23 05:32:16;;;;;;;18.95;6.88;;;;;;;5.59;48.56;100787.22;5082955;28;20047;-59
2022/03/23 05:34:43;;;;;;;15.50;6.57;;;;;;;5.67;48.42;100791.66;5099302;28;20346;-59
2022/03/23 05:37:09;;;;;;;14.68;7.18;;;;;;;5.77;48.03;100797.81;5103153;28;20027;-58
2022/03/23 05:39:35;;;;;;;19.90;6.63;;;;;;;5.73;48.57;100793.47;5103263;28;20036;-60
2022/03/23 05:42:00;;;;;;;15.52;6.85;;;;;;;5.79;48.76;100798.69;5105660;28;20095;-59
2022/03/23 05:44:26;;;;;;;15.70;6.78;;;;;;;5.91;47.76;100804.88;5123199;28;20060;-60
2022/03/23 05:46:52;;;;;;;15.45;6.20;;;;;;;5.95;46.92;100802.38;5104269;28;20039;-60
2022/03/23 05:49:17;;;;;;;17.25;7.30;;;;;;;6.04;46.86;100792.28;5103018;28;20024;-59
2022/03/23 05:51:43;;;;;;;18.23;6.38;;;;;;;6.03;47.79;100792.25;5103870;28;20246;-59
2022/03/23 05:54:08;;;;;;;15.15;6.85;;;;;;;6.20;47.57;100797.66;5091012;28;20062;-60
2022/03/23 05:56:34;;;;;;;16.30;7.68;;;;;;;6.18;46.92;100789.03;5082210;28;20223;-58
2022/03/23 05:58:59;;;;;;;15.52;7.78;;;;;;;6.27;47.94;100794.31;5103186;28;20077;-59
2022/03/23 06:01:25;;;;;;;17.30;8.85;;;;;;;6.35;46.78;100789.25;5100364;28;20026;-59
2022/03/23 06:03:51;;;;;;;20.58;8.55;;;;;;;6.34;46.50;100795.25;5100891;28;20074;-59
2022/03/23 06:06:17;;;;;;;22.13;8.38;;;;;;;6.54;46.30;100790.38;5087723;28;20156;-58
2022/03/23 06:08:43;;;;;;;15.73;8.20;;;;;;;6.62;47.31;100796.47;5103600;28;20040;-59
2022/03/23 06:11:08;;;;;;;19.77;9.88;;;;;;;6.79;45.59;100785.53;5102564;28;20036;-58
2022/03/23 06:13:34;;;;;;;20.05;8.68;;;;;;;7.43;45.28;100787.94;5099994;28;20084;-59
2022/03/23 06:16:00;;;;;;;13.05;7.28;;;;;;;7.61;44.53;100789.81;5096007;28;20039;-59
2022/03/23 06:18:25;;;;;;;17.10;7.53;;;;;;;7.80;45.00;100792.56;5104716;28;20035;-58
2022/03/23 06:20:51;;;;;;;17.95;7.18;;;;;;;8.32;43.68;100787.72;5105232;28;20032;-59
2022/03/23 06:23:17;;;;;;;23.05;7.57;;;;;;;9.13;41.38;100791.53;5099478;28;20263;-60
2022/03/23 06:25:42;;;;;;;12.90;6.47;;;;;;;9.95;40.54;100773.50;5099162;28;20036;-60
2022/03/23 06:28:08;;;;;;;17.40;6.85;;;;;;;10.71;38.39;100779.34;5099673;28;20039;-59
2022/03/23 06:30:34;;;;;;;12.60;6.57;;;;;;;11.50;36.82;100764.19;5099481;28;20337;-60
2022/03/23 06:33:00;;;;;;;12.95;6.70;;;;;;;12.25;36.46;100757.44;5098494;28;20043;-60
2022/03/23 06:35:28;;;;;;;18.58;6.53;;;;;;;12.70;34.97;100762.13;5100005;28;20043;-59
2022/03/23 06:37:53;;;;;;;13.88;6.28;;;;;;;12.94;34.70;100755.75;5116802;28;20324;-60
2022/03/23 06:40:20;;;;;;;13.65;6.25;;;;;;;13.13;33.41;100760.69;5107655;27;20036;-61
2022/03/23 06:42:46;;;;;;;11.35;6.13;;;;;;;13.25;33.91;100718.91;5100457;28;20317;-61
2022/03/23 06:45:12;;;;;;;18.35;5.88;;;;;;;13.83;33.14;100752.66;5105224;28;20369;-61
2022/03/23 06:47:38;;;;;;;17.52;6.50;;;;;;;13.81;32.57;100759.66;5111249;28;20305;-63
2022/03/23 06:50:04;;;;;;;14.90;5.78;;;;;;;13.72;32.67;100759.81;5100760;28;20059;-60
2022/03/23 06:52:30;;;;;;;13.50;4.53;;;;;;;13.37;31.39;100753.44;5113569;28;20053;-60
2022/03/23 06:54:55;;;;;;;18.15;5.40;;;;;;;13.62;33.61;100748.69;5101047;28;20055;-60
2022/03/23 06:57:21;;;;;;;13.63;5.30;;;;;;;14.12;31.37;100752.16;5096176;28;20028;-60
2022/03/23 06:59:47;;;;;;;11.75;4.70;;;;;;;14.84;30.81;100744.63;5084765;28;20343;-60
2022/03/23 07:02:13;;;;;;;15.32;5.05;;;;;;;15.29;29.48;100743.63;5099352;28;20557;-60
2022/03/23 07:04:39;;;;;;;12.93;5.05;;;;;;;16.05;28.98;100750.41;5098927;28;20053;-59
2022/03/23 07:07:05;;;;;;;10.10;4.93;;;;;;;16.25;28.70;100746.41;5099305;28;20028;-59
2022/03/23 07:09:31;;;;;;;12.65;4.80;;;;;;;15.75;28.77;100744.22;5108220;28;20058;-59
2022/03/23 07:12:01;;;;;;;10.23;4.75;;;;;;;16.03;28.39;100749.63;5121420;28;20167;-59
2022/03/23 07:14:30;;;;;;;8.63;4.50;;;;;;;15.98;28.21;100730.59;5103326;28;20069;-59
2022/03/23 07:16:56;;;;;;;9.07;4.50;;;;;;;16.44;28.45;100738.06;5101544;28;20023;-59
2022/03/23 07:19:22;;;;;;;11.52;5.20;;;;;;;15.93;28.13;100737.69;5101703;28;20039;-59
2022/03/23 07:21:48;;;;;;;10.13;5.35;;;;;;;16.28;28.49;100735.88;5102192;28;20369;-60
2022/03/23 07:24:14;;;;;;;7.82;5.32;;;;;;;16.41;27.75;100739.00;5102728;28;20100;-59
2022/03/23 07:26:39;;;;;;;10.90;5.07;;;;;;;15.79;28.34;100731.97;5102520;28;20040;-60
2022/03/23 07:29:05;;;;;;;16.08;7.50;;;;;;;15.99;28.46;100723.59;5122345;28;20023;-60
2022/03/23 07:31:31;;;;;;;14.85;5.45;;;;;;;16.10;28.40;100729.38;5111956;28;20028;-60
2022/03/23 07:33:57;;;;;;;10.55;4.65;;;;;;;15.52;28.13;100687.38;5091154;28;20024;-60
2022/03/23 07:36:24;;;;;;;5.57;4.22;;;;;;;15.56;28.97;100722.09;5105358;28;20039;-59
2022/03/23 07:38:50;;;;;;;8.00;4.70;;;;;;;15.69;28.57;100723.47;5120060;28;20024;-59
2022/03/23 07:41:16;;;;;;;8.88;4.60;;;;;;;15.77;28.31;100720.69;5121710;28;20366;-59
2022/03/23 07:43:42;;;;;;;7.35;3.03;;;;;;;14.91;29.48;100724.47;5121799;28;20028;-59
2022/03/23 07:46:08;;;;;;;5.57;3.33;;;;;;;15.25;29.28;100718.47;5110521;28;20028;-59
2022/03/23 07:48:34;;;;;;;6.35;3.53;;;;;;;15.32;29.47;100727.88;5108242;28;20216;-59
2022/03/23 07:51:00;;;;;;;11.38;3.38;;;;;;;15.31;29.77;100705.28;5119995;28;20031;-59
2022/03/23 07:53:25;;;;;;;8.55;3.65;;;;;;;15.88;27.90;100731.72;5102557;28;20024;-59
2022/03/23 07:55:51;;;;;;;7.90;3.80;;;;;;;15.85;27.90;100718.75;5102590;28;20031;-60
2022/03/23 07:58:16;;;;;;;8.73;4.05;;;;;;;15.75;28.00;100717.22;5102781;28;20279;-60
2022/03/23 08:00:43;;;;;;;8.20;3.60;;;;;;;16.00;27.19;100718.34;5102310;28;20020;-58
2022/03/23 08:03:10;;;;;;;12.10;4.20;;;;;;;16.22;27.12;100717.75;5102366;28;20393;-59
2022/03/23 08:05:39;;;;;;;6.57;4.07;;;;;;;15.21;27.37;100709.00;5102701;28;20035;-59
2022/03/23 08:08:09;;;;;;;5.72;3.92;;;;;;;15.08;28.78;100708.44;5113220;28;20073;-59
2022/03/23 08:10:36;;;;;;;9.90;3.85;;;;;;;14.70;29.06;100704.94;5113287;28;20016;-59
2022/03/23 08:13:03;;;;;;;7.55;3.80;;;;;;;14.89;29.12;100696.72;5103195;28;20079;-59
2022/03/23 08:15:29;;;;;;;7.85;4.50;;;;;;;15.24;28.75;100703.72;5124373;28;20064;-60
2022/03/23 08:17:56;;;;;;;11.05;4.55;;;;;;;15.37;28.04;100701.66;5108207;28;20044;-59
2022/03/23 08:20:37;;;;;;;8.30;4.25;;;;;;;15.42;27.50;100707.63;5104949;28;20016;-59
2022/03/23 08:23:09;;;;;;;12.43;4.30;;;;;;;15.10;28.31;100670.13;5120498;28;20042;-60
2022/03/23 08:25:41;;;;;;;8.52;4.50;;;;;;;15.19;27.00;100693.38;5107900;28;20270;-60
2022/03/23 08:28:08;;;;;;;8.45;4.82;;;;;;;15.20;26.93;100707.28;5102141;28;20213;-59
2022/03/23 08:30:34;;;;;;;9.45;4.90;;;;;;;14.89;27.47;100688.88;5102418;28;20035;-58
2022/03/23 08:33:02;;;;;;;11.60;4.68;;;;;;;15.29;26.32;100685.31;5101889;28;20032;-57
2022/03/23 08:35:28;;;;;;;9.05;4.55;;;;;;;14.97;28.16;100687.81;5102081;28;20043;-58
2022/03/23 08:37:54;;;;;;;8.88;4.70;;;;;;;15.07;27.09;100685.00;5108365;28;20020;-57
2022/03/23 08:40:20;;;;;;;13.07;5.05;;;;;;;14.79;27.17;100680.41;5115158;28;20062;-57
2022/03/23 08:42:46;;;;;;;18.52;6.10;;;;;;;15.51;27.37;100665.59;5114420;28;20091;-57
2022/03/23 08:45:12;;;;;;;9.13;5.28;;;;;;;14.47;26.56;100656.75;5105297;28;20050;-59
2022/03/23 08:47:39;;;;;;;9.40;4.97;;;;;;;14.88;27.95;100661.97;5112124;28;20317;-57
2022/03/23 08:50:07;;;;;;;10.30;5.43;;;;;;;15.16;26.49;100649.09;5102683;28;20044;-58
2022/03/23 08:52:34;;;;;;;9.23;5.32;;;;;;;15.50;26.13;100668.25;5104023;28;20024;-58
2022/03/23 08:55:01;;;;;;;10.70;5.45;;;;;;;15.82;26.50;100662.22;5121677;28;20020;-58
2022/03/23 08:57:29;;;;;;;8.27;5.18;;;;;;;15.83;27.08;100657.84;5105450;28;20385;-58
2022/03/23 08:59:54;;;;;;;13.95;5.85;;;;;;;15.38;26.21;100658.13;5099933;28;20039;-58
2022/03/23 09:02:20;;;;;;;13.40;6.38;;;;;;;15.25;26.06;100661.06;5105558;28;20039;-58
2022/03/23 09:04:45;;;;;;;13.15;6.15;;;;;;;15.27;27.84;100655.81;5121770;28;20024;-57
2022/03/23 09:07:11;;;;;;;11.77;6.20;;;;;;;15.86;26.21;100653.41;5111368;28;20028;-59
2022/03/23 09:09:36;;;;;;;12.13;5.95;;;;;;;15.83;27.37;100645.66;5105375;28;20032;-60
2022/03/23 09:12:02;;;;;;;12.38;6.03;;;;;;;15.23;26.36;100641.97;5105226;28;20110;-58
2022/03/23 09:14:28;;;;;;;9.52;6.00;;;;;;;15.23;27.17;100641.97;5105377;28;20024;-58
2022/03/23 09:16:53;;;;;;;9.45;5.68;;;;;;;14.97;26.23;100651.28;5104078;28;20220;-59
2022/03/23 09:19:20;;;;;;;13.27;6.05;;;;;;;14.81;26.70;100642.13;5105114;28;20024;-58
2022/03/23 09:21:49;;;;;;;12.57;6.07;;;;;;;14.57;25.51;100633.94;5092456;28;20031;-58
2022/03/23 09:24:15;;;;;;;15.45;6.57;;;;;;;15.17;28.04;100631.69;5105176;28;20043;-59
2022/03/23 09:26:42;;;;;;;15.15;6.30;;;;;;;14.95;26.65;100624.41;5104856;28;20024;-58
2022/03/23 09:29:08;;;;;;;13.10;5.70;;;;;;;15.47;27.08;100613.53;5124193;28;20079;-57
2022/03/23 09:31:34;;;;;;;9.95;4.93;;;;;;;15.64;25.90;100616.53;5124449;28;20023;-57
2022/03/23 09:34:02;;;;;;;11.27;5.20;;;;;;;15.29;26.08;100615.72;5095406;27;20050;-57
2022/03/23 09:39:15;;;;;;;11.77;5.15;;;;;;;14.97;26.34;100616.53;5104911;28;20024;-58
2022/03/23 09:41:43;;;;;;;8.85;5.40;;;;;;;14.63;28.74;100620.78;5104834;28;20323;-58
2022/03/23 09:44:10;;;;;;;8.32;5.28;;;;;;;14.17;26.78;100615.72;5104788;28;20101;-57
2022/03/23 09:46:35;;;;;;;8.07;4.50;;;;;;;14.17;25.68;100603.56;5120578;28;20048;-57
2022/03/23 09:49:02;;;;;;;9.50;4.70;;;;;;;13.88;27.79;100597.22;5098043;28;20097;-58
2022/03/23 09:51:31;;;;;;;9.93;4.93;;;;;;;13.67;26.05;100582.00;5104481;28;20051;-58
2022/03/23 09:53:58;;;;;;;11.90;5.10;;;;;;;13.57;27.13;100571.78;5104009;28;20110;-57
2022/03/23 09:56:24;;;;;;;15.77;6.05;;;;;;;13.73;28.21;100589.69;5105066;28;20032;-58
2022/03/23 09:58:49;;;;;;;15.43;5.78;;;;;;;13.55;29.88;100599.59;5104354;28;20047;-59
2022/03/23 10:01:34;;;;;;;10.60;5.68;;;;;;;13.52;29.78;100597.03;5112093;28;20027;-60
2022/03/23 10:04:47;;;;;;;10.25;6.20;;;;;;;13.62;29.37;100582.97;5112330;28;20190;-58
2022/03/23 10:07:19;;;;;;;14.82;6.03;;;;;;;13.42;29.53;100590.28;5108116;28;20051;-58
2022/03/23 10:10:09;;;;;;;10.85;5.55;;;;;;;13.36;29.07;100574.78;5116854;28;20311;-58
2022/03/23 10:13:12;;;;;;;8.73;5.05;;;;;;;13.38;29.25;100563.47;5110017;28;20058;-57
2022/03/23 10:16:29;;;;;;;13.98;6.40;;;;;;;13.27;28.11;100565.38;5124829;28;20028;-60
2022/03/23 10:18:58;;;;;;;9.25;6.00;;;;;;;13.28;28.93;100559.28;5103405;28;20050;-63
2022/03/23 10:21:35;;;;;;;11.52;5.00;;;;;;;13.11;29.93;100555.25;5103622;28;20096;-58
2022/03/23 10:24:01;;;;;;;13.77;5.40;;;;;;;13.09;30.72;100558.75;5104177;28;20270;-57
2022/03/23 10:26:28;;;;;;;8.43;4.88;;;;;;;13.08;28.76;100559.63;5104041;28;20034;-57
2022/03/23 10:28:55;;;;;;;7.35;3.97;;;;;;;13.14;29.88;100549.16;5102479;28;20038;-57
2022/03/23 10:31:23;;;;;;;8.05;4.40;;;;;;;12.68;27.64;100501.38;5116290;28;20144;-58
2022/03/23 10:33:58;;;;;;;10.20;5.13;;;;;;;13.03;30.55;100541.53;5088123;28;20028;-58
2022/03/23 10:36:27;;;;;;;8.85;5.05;;;;;;;12.82;28.58;100506.34;5105348;28;20024;-58
2022/03/23 10:39:04;;;;;;;8.65;4.10;;;;;;;12.97;28.30;100535.56;5124003;28;20023;-58
2022/03/23 10:41:30;;;;;;;6.40;3.92;;;;;;;13.13;26.85;100535.25;5099319;28;20275;-58
2022/03/23 10:43:57;;;;;;;8.77;4.05;;;;;;;12.94;26.59;100534.75;5103406;28;20024;-58
2022/03/23 10:46:23;;;;;;;7.03;4.15;;;;;;;12.46;26.93;100526.03;5103387;28;20231;-59
2022/03/23 10:48:51;;;;;;;6.85;4.38;;;;;;;12.62;27.55;100517.09;5110867;28;20034;-58
2022/03/23 10:51:37;;;;;;;7.25;3.88;;;;;;;12.83;27.34;100515.03;5121185;28;20024;-57
2022/03/23 10:54:23;;;;;;;10.45;4.15;;;;;;;12.61;28.27;100512.75;5098309;28;20032;-58
2022/03/23 10:56:49;;;;;;;8.40;5.38;;;;;;;12.77;27.25;100509.03;5103588;28;20038;-59
2022/03/23 10:59:22;;;;;;;6.72;4.13;;;;;;;12.72;28.23;100502.19;5101231;28;20098;-58
2022/03/23 11:02:05;;;;;;;6.93;4.18;;;;;;;12.46;28.36;100461.94;5097397;28;20228;-59
2022/03/23 11:04:45;;;;;;;7.30;3.88;;;;;;;12.87;27.72;100495.88;5101922;28;20091;-59
2022/03/23 11:07:23;;;;;;;8.95;4.57;;;;;;;12.57;26.37;100435.78;5092807;28;20031;-58
2022/03/23 11:18:06;;;;;;;8.32;4.40;;;;;;;12.47;29.78;100432.47;5121982;28;20046;-58
2022/03/23 11:20:46;;;;;;;11.65;4.85;;;;;;;12.49;26.81;100469.66;5101972;28;20035;-58
2022/03/23 11:23:31;;;;;;;9.32;4.20;;;;;;;12.47;26.92;100478.34;5121659;28;20015;-58
2022/03/23 11:26:03;;;;;;;6.72;4.47;;;;;;;12.47;28.89;100481.84;5106383;28;20058;-58
2022/03/23 11:28:32;;;;;;;11.77;5.00;;;;;;;12.38;27.86;100433.47;5102599;28;20024;-59
2022/03/23 11:30:58;;;;;;;11.38;4.60;;;;;;;12.67;27.66;100465.91;5102972;28;20028;-58
2022/03/23 11:33:26;;;;;;;35.58;22.75;;;;;;;12.80;28.62;100478.66;5102717;28;20024;-57
2022/03/23 11:35:53;;;;;;;12.80;6.10;;;;;;;12.95;28.56;100462.78;5101575;28;20238;-58
2022/03/23 11:38:23;;;;;;;7.95;4.70;;;;;;;12.82;27.77;100438.75;5112394;28;20024;-58
2022/03/23 11:40:52;;;;;;;8.90;4.97;;;;;;;12.98;28.54;100462.72;5097710;28;20031;-58
2022/03/23 11:43:21;;;;;;;9.50;4.30;;;;;;;12.65;28.44;100399.25;5102708;28;20032;-57
2022/03/23 11:45:48;;;;;;;7.45;4.18;;;;;;;12.87;28.48;100451.66;5109706;28;20046;-58
2022/03/23 11:48:23;;;;;;;7.50;4.75;;;;;;;12.71;28.16;100446.78;5104545;28;20024;-57